createdAt,value
2019-05-18T00:01:38.955Z,51.47
2019-05-18T00:04:07.810Z,50.07
2019-05-18T00:06:36.692Z,51.70
2019-05-18T00:09:07.298Z,50.97
2019-05-18T00:11:36.175Z,51.23
2019-05-18T00:14:05.065Z,49.53
2019-05-18T00:16:33.970Z,47.90
2019-05-18T00:19:03.633Z,50.00
2019-05-18T00:21:32.566Z,50.50
2019-05-18T00:24:01.516Z,50.47
2019-05-18T00:26:30.356Z,49.07
2019-05-18T00:28:59.211Z,43.70
2019-05-18T00:31:28.131Z,43.17
2019-05-18T00:33:56.982Z,43.13
2019-05-18T00:36:25.860Z,43.20
2019-05-18T00:38:54.891Z,41.63
2019-05-18T00:41:23.751Z,42.80
2019-05-18T00:43:52.609Z,44.67
2019-05-18T00:46:21.519Z,41.40
2019-05-18T00:48:50.385Z,45.33
2019-05-18T00:51:19.257Z,55.53
2019-05-18T00:53:48.252Z,62.73
2019-05-18T00:56:17.117Z,62.50
2019-05-18T00:58:45.970Z,53.30
2019-05-18T01:01:14.904Z,61.07
2019-05-18T01:03:43.768Z,45.77
2019-05-18T01:06:12.618Z,45.13
2019-05-18T01:08:41.526Z,41.97
2019-05-18T01:11:10.377Z,44.27
2019-05-18T01:13:39.240Z,43.23
2019-05-18T01:16:08.949Z,39.20
2019-05-18T01:18:37.836Z,40.40
2019-05-18T01:21:06.677Z,39.77
2019-05-18T01:23:35.602Z,41.03
2019-05-18T01:26:04.464Z,40.77
2019-05-18T01:28:33.322Z,39.27
2019-05-18T01:31:02.214Z,40.90
2019-05-18T01:33:31.092Z,40.27
2019-05-18T01:35:59.951Z,40.50
2019-05-18T01:38:28.856Z,39.47
2019-05-18T01:40:57.708Z,42.20
2019-05-18T01:43:26.558Z,40.93
2019-05-18T01:45:55.485Z,39.70
2019-05-18T01:48:24.335Z,39.20
2019-05-18T01:50:53.194Z,40.83
2019-05-18T01:53:22.081Z,36.87
2019-05-18T01:55:50.921Z,35.00
2019-05-18T01:58:19.776Z,36.80
2019-05-18T02:00:48.674Z,34.40
2019-05-18T02:03:17.531Z,37.33
2019-05-18T02:05:46.391Z,37.00
2019-05-18T02:08:15.431Z,38.37
2019-05-18T02:10:44.287Z,41.93
2019-05-18T02:13:13.149Z,40.77
2019-05-18T02:15:42.055Z,38.60
2019-05-18T02:18:10.913Z,36.53
2019-05-18T02:20:39.773Z,37.40
2019-05-18T02:23:08.691Z,37.30
2019-05-18T02:25:37.539Z,36.90
2019-05-18T02:28:06.814Z,38.40
2019-05-18T02:30:35.753Z,39.10
2019-05-18T02:33:04.614Z,39.37
2019-05-18T02:35:33.480Z,37.07
2019-05-18T02:38:16.054Z,38.17
2019-05-18T02:40:46.055Z,41.93
2019-05-18T02:43:15.501Z,43.23
2019-05-18T02:45:44.742Z,40.10
2019-05-18T02:48:13.604Z,42.43
2019-05-18T02:50:42.470Z,44.47
2019-05-18T02:53:11.377Z,43.07
2019-05-18T02:55:40.432Z,42.73
2019-05-18T02:58:09.278Z,43.10
2019-05-18T03:00:38.184Z,42.00
2019-05-18T03:03:07.072Z,42.07
2019-05-18T03:05:35.938Z,43.73
2019-05-18T03:08:04.985Z,42.27
2019-05-18T03:10:33.940Z,46.63
2019-05-18T03:13:02.798Z,46.77
2019-05-18T03:15:31.718Z,44.83
2019-05-18T03:18:00.978Z,43.90
2019-05-18T03:20:29.846Z,52.10
2019-05-18T03:22:59.001Z,41.40
2019-05-18T03:25:28.357Z,39.87
2019-05-18T03:27:57.234Z,43.93
2019-05-18T03:30:45.936Z,45.00
2019-05-18T03:33:10.126Z,44.67
2019-05-18T03:35:39.051Z,43.57
2019-05-18T03:38:07.910Z,42.50
2019-05-18T03:40:36.776Z,41.87
2019-05-18T03:43:05.673Z,40.63
2019-05-18T03:45:34.522Z,42.27
2019-05-18T03:48:03.394Z,44.07
2019-05-18T03:50:32.346Z,41.97
2019-05-18T03:53:01.211Z,41.90
2019-05-18T03:55:30.079Z,42.40
2019-05-18T03:57:59.003Z,41.90
2019-05-18T04:00:27.866Z,43.17
2019-05-18T04:02:56.727Z,43.23
2019-05-18T04:05:25.629Z,37.53
2019-05-18T04:07:54.492Z,40.13
2019-05-18T04:10:25.534Z,37.70
2019-05-18T04:12:54.545Z,34.90
2019-05-18T04:15:23.499Z,35.80
2019-05-18T04:17:52.361Z,36.47
2019-05-18T04:20:21.278Z,37.40
2019-05-18T04:22:50.135Z,35.93
2019-05-18T04:25:19.022Z,35.83
2019-05-18T04:27:47.919Z,34.23
2019-05-18T04:30:17.484Z,34.80
2019-05-18T04:32:46.343Z,35.10
2019-05-18T04:35:15.282Z,35.07
2019-05-18T04:37:44.139Z,33.07
2019-05-18T04:40:13.396Z,33.20
2019-05-18T04:42:42.311Z,32.73
2019-05-18T04:45:11.396Z,32.03
2019-05-18T04:47:40.256Z,32.13
2019-05-18T04:50:09.604Z,31.63
2019-05-18T04:52:38.452Z,30.23
2019-05-18T04:55:07.522Z,29.27
2019-05-18T04:57:36.455Z,29.00
2019-05-18T05:00:08.881Z,29.90
2019-05-18T05:02:37.752Z,28.33
2019-05-18T05:05:09.419Z,28.80
2019-05-18T05:07:38.286Z,27.73
2019-05-18T05:10:07.451Z,29.60
2019-05-18T05:12:36.393Z,30.40
2019-05-18T05:15:05.956Z,28.80
2019-05-18T05:17:34.820Z,28.87
2019-05-18T05:20:18.824Z,30.87
2019-05-18T05:22:35.838Z,27.47
2019-05-18T05:25:04.927Z,27.67
2019-05-18T05:27:34.906Z,29.97
2019-05-18T05:30:05.463Z,29.63
2019-05-18T05:32:34.326Z,27.80
2019-05-18T05:35:03.334Z,26.13
2019-05-18T05:37:32.242Z,25.07
2019-05-18T05:40:01.115Z,24.60
2019-05-18T05:42:30.013Z,24.90
2019-05-18T05:44:58.878Z,28.23
2019-05-18T05:47:27.782Z,27.00
2019-05-18T05:49:56.669Z,25.80
2019-05-18T05:52:25.547Z,24.33
2019-05-18T05:54:54.403Z,24.30
2019-05-18T05:57:23.320Z,26.50
2019-05-18T05:59:52.187Z,24.37
2019-05-18T06:02:21.070Z,21.93
2019-05-18T06:04:49.983Z,22.75
2019-05-18T06:07:18.851Z,22.27
2019-05-18T06:09:47.701Z,22.90
2019-05-18T06:12:16.724Z,25.10
2019-05-18T06:14:45.588Z,26.37
2019-05-18T06:17:14.476Z,26.07
2019-05-18T06:19:43.843Z,30.10
2019-05-18T06:22:12.748Z,32.57
2019-05-18T06:24:41.629Z,32.83
2019-05-18T06:27:10.531Z,31.67
2019-05-18T06:29:39.410Z,31.93
2019-05-18T06:32:08.292Z,32.43
2019-05-18T06:34:37.186Z,32.77
2019-05-18T06:37:07.533Z,31.47
2019-05-18T06:39:36.433Z,32.67
2019-05-18T06:42:05.466Z,34.03
2019-05-18T06:44:35.838Z,36.13
2019-05-18T06:47:04.710Z,33.27
2019-05-18T06:49:33.618Z,34.37
2019-05-18T06:52:02.669Z,33.07
2019-05-18T06:54:33.258Z,34.07
2019-05-18T06:57:03.122Z,33.03
2019-05-18T06:59:32.760Z,32.90
2019-05-18T07:02:03.539Z,35.73
2019-05-18T07:04:32.210Z,35.77
2019-05-18T07:07:01.201Z,36.03
2019-05-18T07:09:30.122Z,35.80
2019-05-18T07:12:00.017Z,34.47
2019-05-18T07:14:28.878Z,34.07
2019-05-18T07:16:57.759Z,32.33
2019-05-18T07:19:26.668Z,34.63
2019-05-18T07:21:55.614Z,34.00
2019-05-18T07:24:24.458Z,37.43
2019-05-18T07:26:53.759Z,32.43
2019-05-18T07:29:22.640Z,32.80
2019-05-18T07:31:51.494Z,33.30
2019-05-18T07:34:20.425Z,33.18
2019-05-18T07:36:49.286Z,31.90
2019-05-18T07:39:18.171Z,31.80
2019-05-18T07:41:47.351Z,33.38
2019-05-18T07:44:16.360Z,34.88
2019-05-18T07:46:45.230Z,29.77
2019-05-18T07:49:14.214Z,29.15
2019-05-18T07:51:43.065Z,29.10
2019-05-18T07:54:11.977Z,26.77
2019-05-18T07:56:40.886Z,30.25
2019-05-18T07:59:09.732Z,25.12
2019-05-18T08:01:38.616Z,24.45
2019-05-18T08:04:07.537Z,26.95
2019-05-18T08:06:36.435Z,23.52
2019-05-18T08:09:07.485Z,20.70
2019-05-18T08:11:36.429Z,21.77
2019-05-18T08:14:05.480Z,16.82
2019-05-18T08:16:34.372Z,14.80
2019-05-18T08:19:03.260Z,9.93
2019-05-18T08:21:32.145Z,10.05
2019-05-18T08:24:00.997Z,12.28
2019-05-18T08:26:29.906Z,12.07
2019-05-18T08:28:58.812Z,12.82
2019-05-18T08:31:27.669Z,12.37
2019-05-18T08:33:56.601Z,11.12
2019-05-18T08:36:25.453Z,11.75
2019-05-18T08:38:54.323Z,9.85
2019-05-18T08:41:23.241Z,9.05
2019-05-18T08:43:52.118Z,12.05
2019-05-18T08:46:20.978Z,12.25
2019-05-18T08:48:49.898Z,11.10
2019-05-18T08:51:18.751Z,11.93
2019-05-18T08:53:47.639Z,10.25
2019-05-18T08:56:16.606Z,9.18
2019-05-18T08:58:45.450Z,11.30
2019-05-18T09:01:14.328Z,11.40
2019-05-18T09:03:43.226Z,10.35
2019-05-18T09:06:14.888Z,9.18
2019-05-18T09:08:43.745Z,8.93
2019-05-18T09:11:12.663Z,8.00
2019-05-18T09:13:41.535Z,7.28
2019-05-18T09:16:10.410Z,8.05
2019-05-18T09:18:39.331Z,9.98
2019-05-18T09:21:08.193Z,7.85
2019-05-18T09:23:37.029Z,7.67
2019-05-18T09:26:05.958Z,7.40
2019-05-18T09:28:34.807Z,6.25
2019-05-18T09:31:05.391Z,6.40
2019-05-18T09:33:34.300Z,5.28
2019-05-18T09:36:03.157Z,6.05
2019-05-18T09:38:33.400Z,4.70
2019-05-18T09:41:02.743Z,4.28
2019-05-18T09:43:31.614Z,5.10
2019-05-18T09:46:00.465Z,5.20
2019-05-18T09:48:29.422Z,5.10
2019-05-18T09:50:58.273Z,4.10
2019-05-18T09:53:29.943Z,5.53
2019-05-18T09:55:57.656Z,6.60
2019-05-18T09:58:26.518Z,5.87
2019-05-18T10:00:55.395Z,6.47
2019-05-18T10:03:24.978Z,6.05
2019-05-18T10:05:53.835Z,4.80
2019-05-18T10:08:22.709Z,5.10
2019-05-18T10:10:51.804Z,4.62
2019-05-18T10:13:20.650Z,5.30
2019-05-18T10:15:49.521Z,4.92
2019-05-18T10:18:21.652Z,5.95
2019-05-18T10:20:48.945Z,6.45
2019-05-18T10:23:17.819Z,5.03
2019-05-18T10:25:46.740Z,5.53
2019-05-18T10:28:15.589Z,5.45
2019-05-18T10:30:44.437Z,5.72
2019-05-18T10:33:13.364Z,6.00
2019-05-18T10:35:42.240Z,5.87
2019-05-18T10:38:11.083Z,5.90
2019-05-18T10:40:39.983Z,5.10
2019-05-18T10:43:08.859Z,5.17
2019-05-18T10:45:37.716Z,6.37
2019-05-18T10:48:06.862Z,5.53
2019-05-18T10:50:35.721Z,5.13
2019-05-18T10:53:04.583Z,5.23
2019-05-18T10:55:34.436Z,5.57
2019-05-18T10:58:03.492Z,5.40
2019-05-18T11:00:32.343Z,4.67
2019-05-18T11:03:01.472Z,5.00
2019-05-18T11:05:30.336Z,4.73
2019-05-18T11:07:59.193Z,5.40
2019-05-18T11:10:28.123Z,5.00
2019-05-18T11:12:56.967Z,4.60
2019-05-18T11:15:25.914Z,5.47
2019-05-18T11:17:54.830Z,5.17
2019-05-18T11:20:24.217Z,5.10
2019-05-18T11:22:53.052Z,5.43
2019-05-18T11:25:22.017Z,5.00
2019-05-18T11:27:50.930Z,4.93
2019-05-18T11:30:20.975Z,4.40
2019-05-18T11:32:49.892Z,5.50
2019-05-18T11:35:19.130Z,4.73
2019-05-18T11:37:48.060Z,5.13
2019-05-18T11:40:18.266Z,8.93
2019-05-18T11:42:47.130Z,10.13
2019-05-18T11:45:17.795Z,10.10
2019-05-18T11:47:46.685Z,9.93
2019-05-18T11:50:16.372Z,12.23
2019-05-18T11:53:04.932Z,12.73
2019-05-18T11:55:33.786Z,12.07
2019-05-18T11:58:02.771Z,11.87
2019-05-18T12:00:31.680Z,12.10
2019-05-18T12:03:00.572Z,11.80
2019-05-18T12:05:29.418Z,10.50
2019-05-18T12:07:58.318Z,10.67
2019-05-18T12:10:27.174Z,10.83
2019-05-18T12:12:56.270Z,9.83
2019-05-18T12:15:25.401Z,11.80
2019-05-18T12:17:54.258Z,11.57
2019-05-18T12:20:24.918Z,11.07
2019-05-18T12:22:53.829Z,11.60
2019-05-18T12:25:22.703Z,11.37
2019-05-18T12:27:51.578Z,11.93
2019-05-18T12:30:21.111Z,12.07
2019-05-18T12:32:50.006Z,12.87
2019-05-18T12:35:18.863Z,13.63
2019-05-18T12:37:48.196Z,13.47
2019-05-18T12:40:19.283Z,14.33
2019-05-18T12:42:48.295Z,15.03
2019-05-18T12:45:18.078Z,16.00
2019-05-18T12:47:46.945Z,14.50
2019-05-18T12:50:16.753Z,13.37
2019-05-18T12:52:45.639Z,14.40
2019-05-18T12:55:16.224Z,15.30
2019-05-18T12:57:45.093Z,14.43
2019-05-18T13:00:16.124Z,14.27
2019-05-18T13:02:44.974Z,13.40
2019-05-18T13:05:14.247Z,13.57
2019-05-18T13:07:43.171Z,13.67
2019-05-18T13:10:12.941Z,13.73
2019-05-18T13:12:41.794Z,14.50
2019-05-18T13:15:12.034Z,13.03
2019-05-18T13:17:40.898Z,12.87
2019-05-18T13:20:11.372Z,13.27
2019-05-18T13:22:40.308Z,12.93
2019-05-18T13:25:10.490Z,12.60
2019-05-18T13:27:40.229Z,12.03
2019-05-18T13:30:11.196Z,12.83
2019-05-18T13:32:40.363Z,11.70
2019-05-18T13:35:09.756Z,12.73
2019-05-18T13:37:38.645Z,12.00
2019-05-18T13:40:08.133Z,11.77
2019-05-18T13:42:37.412Z,12.53
2019-05-18T13:45:08.733Z,11.40
2019-05-18T13:47:37.601Z,10.13
2019-05-18T13:50:08.479Z,11.20
2019-05-18T13:52:37.415Z,12.13
2019-05-18T13:55:06.778Z,11.93
2019-05-18T13:57:35.951Z,12.37
2019-05-18T14:00:07.428Z,11.27
2019-05-18T14:02:36.324Z,10.23
2019-05-18T14:05:06.552Z,11.20
2019-05-18T14:07:35.479Z,11.07
2019-05-18T14:10:08.573Z,11.93
2019-05-18T14:12:37.436Z,11.13
2019-05-18T14:15:07.034Z,10.87
2019-05-18T14:17:35.906Z,11.63
2019-05-18T14:20:06.100Z,10.30
2019-05-18T14:22:36.010Z,11.37
2019-05-18T14:25:18.598Z,11.20
2019-05-18T14:27:39.311Z,12.00
2019-05-18T14:30:08.741Z,11.53
2019-05-18T14:32:37.588Z,12.07
2019-05-18T14:35:09.496Z,11.33
2019-05-18T14:37:38.427Z,10.73
2019-05-18T14:40:08.009Z,12.83
2019-05-18T14:42:36.866Z,10.73
2019-05-18T14:45:07.394Z,10.60
2019-05-18T14:47:36.269Z,10.67
2019-05-18T14:50:07.243Z,11.53
2019-05-18T14:52:36.261Z,11.63
2019-05-18T14:55:06.725Z,11.83
2019-05-18T14:57:35.577Z,11.60
2019-05-18T15:00:07.950Z,10.87
2019-05-18T15:02:36.855Z,10.57
2019-05-18T15:05:08.813Z,10.30
2019-05-18T15:07:37.729Z,10.37
2019-05-18T15:10:08.326Z,10.73
2019-05-18T15:12:37.182Z,11.17
2019-05-18T15:15:08.232Z,11.17
2019-05-18T15:17:37.188Z,10.47
2019-05-18T15:20:10.333Z,10.63
2019-05-18T15:22:39.240Z,11.30
2019-05-18T15:25:08.526Z,10.80
2019-05-18T15:27:37.416Z,11.33
2019-05-18T15:30:08.573Z,11.47
2019-05-18T15:32:37.431Z,11.87
2019-05-18T15:35:08.171Z,11.83
2019-05-18T15:37:37.605Z,13.20
2019-05-18T15:40:08.751Z,11.80
2019-05-18T15:42:37.640Z,12.13
2019-05-18T15:45:10.369Z,11.60
2019-05-18T15:47:39.955Z,11.27
2019-05-18T15:50:09.258Z,11.53
2019-05-18T15:52:38.326Z,12.63
2019-05-18T15:55:08.293Z,15.37
2019-05-18T15:57:37.363Z,16.33
2019-05-18T16:00:08.309Z,14.10
2019-05-18T16:02:37.181Z,14.60
2019-05-18T16:05:06.738Z,15.07
2019-05-18T16:07:35.667Z,15.80
2019-05-18T16:10:05.534Z,14.37
2019-05-18T16:12:34.426Z,14.23
2019-05-18T16:15:04.479Z,15.23
2019-05-18T16:17:39.459Z,16.83
2019-05-18T16:20:05.253Z,34.30
2019-05-18T16:22:34.153Z,22.20
2019-05-18T16:25:03.029Z,21.70
2019-05-18T16:27:31.952Z,18.37
2019-05-18T16:30:00.848Z,14.87
2019-05-18T16:32:29.724Z,11.63
2019-05-18T16:34:58.976Z,9.43
2019-05-18T16:37:27.872Z,7.70
2019-05-18T16:39:56.721Z,8.40
2019-05-18T16:42:25.576Z,8.57
2019-05-18T16:44:54.497Z,7.67
2019-05-18T16:47:23.363Z,8.87
2019-05-18T16:49:52.237Z,9.23
2019-05-18T16:52:21.171Z,9.10
2019-05-18T16:54:50.061Z,10.37
2019-05-18T16:57:18.940Z,10.20
2019-05-18T16:59:47.841Z,11.30
2019-05-18T17:02:30.629Z,11.30
2019-05-18T17:04:47.239Z,12.97
2019-05-18T17:07:16.150Z,12.10
2019-05-18T17:09:45.029Z,10.60
2019-05-18T17:12:13.909Z,10.23
2019-05-18T17:14:42.861Z,11.03
2019-05-18T17:17:11.733Z,11.13
2019-05-18T17:19:40.607Z,11.20
2019-05-18T17:22:09.533Z,12.53
2019-05-18T17:24:38.378Z,12.70
2019-05-18T17:27:07.234Z,12.27
2019-05-18T17:29:36.169Z,12.47
2019-05-18T17:32:05.035Z,11.80
2019-05-18T17:34:33.900Z,11.67
2019-05-18T17:37:02.837Z,13.20
2019-05-18T17:39:31.684Z,12.70
2019-05-18T17:42:00.560Z,13.77
2019-05-18T17:44:29.505Z,17.93
2019-05-18T17:46:58.371Z,23.57
2019-05-18T17:49:27.269Z,20.27
2019-05-18T17:51:56.188Z,30.97
2019-05-18T17:54:25.049Z,23.40
2019-05-18T17:57:07.557Z,29.00
2019-05-18T17:59:24.549Z,33.20
2019-05-18T18:02:12.356Z,38.47
2019-05-18T18:04:41.429Z,36.07
2019-05-18T18:07:10.332Z,23.83
2019-05-18T18:09:39.209Z,24.60
2019-05-18T18:12:08.131Z,28.03
2019-05-18T18:14:37.067Z,30.23
2019-05-18T18:17:05.950Z,35.07
2019-05-18T18:19:34.883Z,30.87
2019-05-18T18:22:03.754Z,31.33
2019-05-18T18:24:32.643Z,33.40
2019-05-18T18:27:01.552Z,30.10
2019-05-18T18:29:30.393Z,23.80
2019-05-18T18:31:59.254Z,28.47
2019-05-18T18:34:28.195Z,26.37
2019-05-18T18:36:57.060Z,28.93
2019-05-18T18:39:25.921Z,25.60
2019-05-18T18:41:54.862Z,31.27
2019-05-18T18:44:23.739Z,28.73
2019-05-18T18:46:52.619Z,25.53
2019-05-18T18:49:21.579Z,27.00
2019-05-18T18:51:50.429Z,20.83
2019-05-18T18:54:19.292Z,26.47
2019-05-18T18:56:48.228Z,26.53
2019-05-18T18:59:17.101Z,34.03
2019-05-18T19:01:45.959Z,33.80
2019-05-18T19:04:14.893Z,35.70
2019-05-18T19:06:43.774Z,28.03
2019-05-18T19:09:12.649Z,25.93
2019-05-18T19:11:41.556Z,22.80
2019-05-18T19:14:10.426Z,24.53
2019-05-18T19:16:39.269Z,23.67
2019-05-18T19:19:08.181Z,26.17
2019-05-18T19:21:37.033Z,26.50
2019-05-18T19:24:05.939Z,30.57
2019-05-18T19:26:34.886Z,30.17
2019-05-18T19:29:03.742Z,26.07
2019-05-18T19:31:32.608Z,21.83
2019-05-18T19:34:01.521Z,22.90
2019-05-18T19:36:30.391Z,26.03
2019-05-18T19:38:59.271Z,27.40
2019-05-18T19:41:28.231Z,56.07
2019-05-18T19:43:57.149Z,56.17
2019-05-18T19:46:26.097Z,64.93
2019-05-18T19:48:55.052Z,66.20
2019-05-18T19:51:23.906Z,63.47
2019-05-18T19:53:52.745Z,43.83
2019-05-18T19:56:21.706Z,41.57
2019-05-18T19:58:50.579Z,38.57
2019-05-18T20:01:20.527Z,37.47
2019-05-18T20:03:49.432Z,33.40
2019-05-18T20:06:18.298Z,34.87
2019-05-18T20:08:47.153Z,40.07
2019-05-18T20:11:16.105Z,39.40
2019-05-18T20:13:45.003Z,38.97
2019-05-18T20:16:13.849Z,42.30
2019-05-18T20:18:42.803Z,40.93
2019-05-18T20:21:11.742Z,41.27
2019-05-18T20:23:40.568Z,53.77
2019-05-18T20:26:09.590Z,43.53
2019-05-18T20:28:38.455Z,30.33
2019-05-18T20:31:07.348Z,28.93
2019-05-18T20:33:36.285Z,32.40
2019-05-18T20:36:05.193Z,23.87
2019-05-18T20:38:34.099Z,35.70
2019-05-18T20:41:03.143Z,37.67
2019-05-18T20:43:32.080Z,35.40
2019-05-18T20:46:01.057Z,32.90
2019-05-18T20:48:30.067Z,32.60
2019-05-18T20:50:58.988Z,32.07
2019-05-18T20:53:27.945Z,33.97
2019-05-18T20:55:56.911Z,30.90
2019-05-18T20:58:38.807Z,31.17
2019-05-18T21:00:56.411Z,31.13
2019-05-18T21:03:25.345Z,33.10
2019-05-18T21:05:54.251Z,41.37
2019-05-18T21:08:28.915Z,40.33
2019-05-18T21:10:57.841Z,31.73
2019-05-18T21:13:29.158Z,26.63
2019-05-18T21:15:58.031Z,23.77
2019-05-18T21:18:26.986Z,26.77
2019-05-18T21:20:55.900Z,27.73
2019-05-18T21:23:24.809Z,38.30
2019-05-18T21:25:53.734Z,37.00
2019-05-18T21:28:22.606Z,42.13
2019-05-18T21:30:51.467Z,41.27
2019-05-18T21:33:20.416Z,42.27
2019-05-18T21:35:49.312Z,40.97
2019-05-18T21:38:18.177Z,38.90
2019-05-18T21:40:47.155Z,42.10
2019-05-18T21:43:16.040Z,38.83
2019-05-18T21:45:45.123Z,38.47
2019-05-18T21:48:14.050Z,36.60
2019-05-18T21:50:42.898Z,36.97
2019-05-18T21:53:11.765Z,35.40
2019-05-18T21:55:40.697Z,34.30
2019-05-18T21:58:12.176Z,34.73
2019-05-18T22:00:40.179Z,33.63
2019-05-18T22:03:09.104Z,32.00
2019-05-18T22:05:38.654Z,31.97
2019-05-18T22:08:07.536Z,28.77
2019-05-18T22:10:36.461Z,27.30
2019-05-18T22:13:05.326Z,33.43
2019-05-18T22:15:34.200Z,29.40
2019-05-18T22:18:03.120Z,29.83
2019-05-18T22:20:34.304Z,29.77
2019-05-18T22:23:03.555Z,31.93
2019-05-18T22:25:34.364Z,31.13
2019-05-18T22:28:03.215Z,27.10
2019-05-18T22:30:32.083Z,27.93
2019-05-18T22:33:01.016Z,29.80
2019-05-18T22:35:29.887Z,30.23
2019-05-18T22:37:58.754Z,32.43
2019-05-18T22:40:27.692Z,33.40
2019-05-18T22:42:56.557Z,33.77
2019-05-18T22:45:25.424Z,30.57
2019-05-18T22:47:54.363Z,31.37
2019-05-18T22:50:23.439Z,32.03
2019-05-18T22:52:52.324Z,35.17
2019-05-18T22:55:21.235Z,35.30
2019-05-18T22:57:50.091Z,32.80
2019-05-18T23:00:22.153Z,31.47
2019-05-18T23:02:51.493Z,27.33
2019-05-18T23:05:20.368Z,26.40
2019-05-18T23:07:49.245Z,29.63
2019-05-18T23:10:18.340Z,28.97
2019-05-18T23:12:47.213Z,29.10
2019-05-18T23:15:16.103Z,25.63
2019-05-18T23:17:45.051Z,24.83
2019-05-18T23:20:13.902Z,23.90
2019-05-18T23:22:42.757Z,23.97
2019-05-18T23:25:11.897Z,22.47
2019-05-18T23:27:40.778Z,20.93
2019-05-18T23:30:09.747Z,18.83
2019-05-18T23:32:38.732Z,20.17
2019-05-18T23:35:07.693Z,18.70
2019-05-18T23:37:36.546Z,18.63
2019-05-18T23:40:06.561Z,17.77
2019-05-18T23:42:35.409Z,18.73
2019-05-18T23:45:06.060Z,18.73
2019-05-18T23:47:35.023Z,18.87
2019-05-18T23:50:04.108Z,19.90
2019-05-18T23:52:32.962Z,20.70
2019-05-18T23:55:02.735Z,22.00
2019-05-18T23:57:31.603Z,20.37
